This is the latest recevied weather packets stored in our database for station/object K4OAM-13. If no packets are shown the sender has not sent any weather packets the latest 10 day(s).
| Time | Temp. | Humidity | Pressure | Rain* | Wind** | Luminosity | Snow |
|---|---|---|---|---|---|---|---|
| 1777636678 | 2.78° C | 80% | 1015.9 hPa | - | - | - | - |
| 1777635778 | 2.78° C | 80% | 1015.9 hPa | - | - | - | - |
| 1777634578 | 2.78° C | 82% | 1015.7 hPa | - | - | - | - |
| 1777633678 | 2.22° C | 84% | 1015.8 hPa | - | - | - | - |
| 1777630078 | 2.78° C | 85% | 1015.4 hPa | - | - | - | - |
| 1777629178 | 2.78° C | 87% | 1015.3 hPa | - | - | - | - |
| 1777628878 | 2.22° C | 88% | 1015.4 hPa | - | - | - | - |
| 1777627378 | 2.22° C | 87% | 1014.9 hPa | - | - | - | - |
| 1777626778 | 2.78° C | 87% | 1014.4 hPa | - | - | - | - |
| 1777625278 | 3.89° C | 86% | 1013.5 hPa | - | - | - | - |
| 1777622578 | 4.44° C | 86% | 1012.2 hPa | - | - | - | - |
| 1777621078 | 5° C | 91% | 1011.5 hPa | - | - | - | - |
| 1777619278 | 5° C | 91% | 1011.1 hPa | - | - | - | - |
| 1777617478 | 5° C | 90% | 1010.4 hPa | - | - | - | - |
| 1777616278 | 5° C | 93% | 1010.4 hPa | - | - | - | - |
| 1777615078 | 5° C | 92% | 1010.2 hPa | - | - | - | - |
| 1777614778 | 5° C | 92% | 1009.8 hPa | - | - | - | - |
| 1777613878 | 5° C | 92% | 1009.7 hPa | - | - | - | - |
| 1777612994 | 5° C | 90% | 1009.6 hPa | - | - | - | - |
| 1777609078 | 6.11° C | 81% | 1008.3 hPa | - | - | - | - |
| 1777606678 | 6.67° C | 74% | 1008 hPa | - | - | - | - |
| 1777604294 | 7.78° C | 66% | 1007.8 hPa | - | - | - | - |
| 1777602778 | 6.67° C | 67% | 1008 hPa | - | - | - | - |
| 1777602478 | 6.67° C | 67% | 1008.1 hPa | - | - | - | - |
| 1777601578 | 6.67° C | 67% | 1008.1 hPa | - | - | - | - |
* Rain since midnight (hover to see other rain measurements)
** Current wind speed in m/s (hover to see current wind gust speed)